Time;durP1;ratioP1;P1;durP2;ratioP2;P2;SDS_P1;SDS_P2;PMS_P1;PMS_P2;Temp;Humidity;BMP_temperature;BMP_pressure;BME280_temperature;BME280_humidity;BME280_pressure;Samples;Min_cycle;Max_cycle;Signal;HPM_P1;HPM_P2
2020/12/11 00:01:57;;;;;;;19.50;14.50;;;3.10;88.10;;;;;;5035602;28;20452;-72
2020/12/11 00:04:23;;;;;;;18.10;13.40;;;3.10;88.00;;;;;;5035655;28;20452;-73
2020/12/11 00:06:50;;;;;;;18.70;13.70;;;3.10;88.20;;;;;;5035307;28;20919;-72
2020/12/11 00:09:16;;;;;;;17.17;12.87;;;3.10;88.20;;;;;;5035544;28;20444;-72
2020/12/11 00:11:42;;;;;;;17.83;13.23;;;3.00;88.30;;;;;;5035434;28;20449;-72
2020/12/11 00:14:09;;;;;;;16.67;12.90;;;3.10;88.90;;;;;;5035527;28;20453;-72
2020/12/11 00:16:36;;;;;;;17.57;13.53;;;3.10;89.00;;;;;;5035904;28;20452;-72
2020/12/11 00:19:02;;;;;;;17.20;13.83;;;3.10;88.60;;;;;;5035333;28;20552;-72
2020/12/11 00:21:28;;;;;;;18.50;13.10;;;3.10;88.40;;;;;;5035033;28;20935;-72
2020/12/11 00:23:54;;;;;;;20.17;13.80;;;3.10;88.70;;;;;;5035276;28;20501;-72
2020/12/11 00:26:20;;;;;;;16.30;13.13;;;3.10;88.70;;;;;;5035211;28;20464;-72
2020/12/11 00:28:47;;;;;;;18.07;12.97;;;3.20;89.00;;;;;;5034762;28;20932;-72
2020/12/11 00:31:13;;;;;;;18.30;13.00;;;3.20;88.50;;;;;;5035121;28;20448;-72
2020/12/11 00:33:40;;;;;;;16.27;12.60;;;3.20;88.70;;;;;;5034049;28;20441;-72
2020/12/11 00:36:06;;;;;;;14.37;11.30;;;3.20;88.90;;;;;;5034764;28;20840;-72
2020/12/11 00:38:32;;;;;;;16.33;12.63;;;3.30;88.90;;;;;;5034831;28;20489;-72
2020/12/11 00:40:58;;;;;;;17.20;12.37;;;3.30;88.80;;;;;;5034900;28;20442;-72
2020/12/11 00:43:24;;;;;;;17.07;12.40;;;3.30;88.60;;;;;;5034538;28;20826;-72
2020/12/11 00:45:50;;;;;;;17.77;13.37;;;3.40;88.80;;;;;;5034840;28;20442;-72
2020/12/11 00:48:17;;;;;;;16.87;12.53;;;3.40;88.70;;;;;;5034709;28;20452;-72
2020/12/11 00:50:44;;;;;;;17.90;12.30;;;3.40;88.60;;;;;;5034713;28;20451;-72
2020/12/11 00:53:10;;;;;;;16.73;12.97;;;3.40;88.30;;;;;;5034710;28;20448;-72
2020/12/11 00:55:36;;;;;;;16.27;11.97;;;3.50;88.20;;;;;;5034670;28;20442;-72
2020/12/11 00:58:02;;;;;;;15.23;12.80;;;3.40;87.90;;;;;;5034517;28;20488;-72
2020/12/11 01:00:28;;;;;;;16.70;12.90;;;3.50;87.90;;;;;;5034696;28;20437;-72
2020/12/11 01:02:54;;;;;;;16.10;12.07;;;3.50;87.90;;;;;;5034450;28;20445;-72
2020/12/11 01:05:21;;;;;;;14.90;12.37;;;3.50;87.00;;;;;;5034457;28;20447;-72
2020/12/11 01:07:48;;;;;;;14.10;11.70;;;3.40;86.80;;;;;;5034408;28;20472;-72
2020/12/11 01:10:14;;;;;;;14.90;11.33;;;3.40;87.00;;;;;;5034309;28;20441;-72
2020/12/11 01:12:40;;;;;;;15.13;12.27;;;3.30;87.10;;;;;;5034305;28;20446;-72
2020/12/11 01:15:06;;;;;;;16.50;13.60;;;3.30;87.30;;;;;;5034403;28;20455;-72
2020/12/11 01:17:32;;;;;;;14.93;12.13;;;3.30;87.50;;;;;;5034115;28;20854;-72
2020/12/11 01:19:58;;;;;;;16.03;13.03;;;3.30;87.70;;;;;;5034133;28;20503;-72
2020/12/11 01:22:25;;;;;;;14.33;11.90;;;3.30;87.80;;;;;;5034222;28;20449;-72
2020/12/11 01:24:52;;;;;;;14.80;11.53;;;3.30;87.90;;;;;;5034128;28;20447;-72
2020/12/11 01:27:18;;;;;;;15.30;11.73;;;3.30;87.90;;;;;;5034007;28;20469;-72
2020/12/11 01:29:44;;;;;;;15.13;11.70;;;3.30;87.80;;;;;;5033773;28;20932;-72
2020/12/11 01:32:10;;;;;;;15.50;12.13;;;3.30;87.80;;;;;;5034010;28;20452;-72
2020/12/11 01:34:36;;;;;;;12.87;11.27;;;3.30;87.70;;;;;;5033932;28;20452;-72
2020/12/11 01:37:04;;;;;;;15.30;11.90;;;3.40;87.90;;;;;;5033349;28;20487;-72
2020/12/11 01:39:32;;;;;;;14.70;11.73;;;3.40;87.50;;;;;;5033751;28;20460;-72
2020/12/11 01:42:00;;;;;;;16.53;11.60;;;3.30;87.90;;;;;;5033888;28;20816;-72
2020/12/11 01:44:27;;;;;;;14.63;11.97;;;3.40;88.10;;;;;;5033430;28;20441;-72
2020/12/11 01:46:55;;;;;;;15.93;13.07;;;3.40;87.70;;;;;;5033193;28;20995;-72
2020/12/11 01:49:22;;;;;;;16.83;11.60;;;3.30;87.50;;;;;;5033833;28;20430;-73
2020/12/11 01:51:50;;;;;;;15.40;12.03;;;3.30;87.20;;;;;;5033734;28;20440;-73
2020/12/11 01:54:16;;;;;;;15.87;13.47;;;3.20;87.60;;;;;;5033431;28;20927;-73
2020/12/11 01:56:51;;;;;;;14.53;11.77;;;3.20;87.70;;;;;;5033502;28;20440;-72
2020/12/11 01:59:22;;;;;;;15.87;11.90;;;3.20;88.00;;;;;;5033739;28;20432;-72
2020/12/11 02:01:54;;;;;;;17.33;13.03;;;3.10;88.10;;;;;;5033798;28;20492;-72
2020/12/11 02:04:20;;;;;;;15.53;13.00;;;3.10;88.40;;;;;;5033380;28;20920;-72
2020/12/11 02:06:51;;;;;;;17.47;12.97;;;3.10;88.60;;;;;;5033528;28;20447;-72
2020/12/11 02:09:18;;;;;;;18.83;12.80;;;3.10;88.90;;;;;;5033101;28;21006;-72
2020/12/11 02:11:45;;;;;;;16.57;12.23;;;3.10;88.70;;;;;;5033479;28;20449;-72
2020/12/11 02:14:11;;;;;;;16.47;13.20;;;3.10;89.00;;;;;;5033455;28;20445;-72
2020/12/11 02:16:37;;;;;;;18.07;12.70;;;3.10;88.80;;;;;;5033321;28;20939;-72
2020/12/11 02:19:04;;;;;;;18.67;13.63;;;3.10;89.00;;;;;;5033293;28;20468;-72
2020/12/11 02:21:32;;;;;;;15.47;13.50;;;3.10;89.20;;;;;;5033693;28;20781;-72
2020/12/11 02:23:58;;;;;;;19.43;14.40;;;3.10;89.20;;;;;;5033297;28;20488;-72
2020/12/11 02:26:24;;;;;;;17.20;13.40;;;3.10;89.00;;;;;;5032950;28;20938;-72
2020/12/11 02:28:51;;;;;;;19.20;14.10;;;3.10;89.10;;;;;;5033247;28;20562;-72
2020/12/11 02:31:17;;;;;;;18.73;13.30;;;3.10;89.30;;;;;;5033318;28;20456;-72
2020/12/11 02:33:43;;;;;;;17.33;12.97;;;3.10;89.50;;;;;;5033268;28;20807;-72
2020/12/11 02:36:09;;;;;;;17.87;13.77;;;3.10;89.50;;;;;;5032921;28;20472;-72
2020/12/11 02:38:36;;;;;;;16.43;13.80;;;3.10;89.50;;;;;;5033007;28;20488;-72
2020/12/11 02:41:02;;;;;;;22.60;14.30;;;3.10;89.50;;;;;;5033121;28;20449;-72
2020/12/11 02:43:34;;;;;;;16.87;14.63;;;3.10;89.50;;;;;;5032852;28;20920;-72
2020/12/11 02:46:00;;;;;;;19.23;14.77;;;3.20;89.30;;;;;;5033200;28;20484;-72
2020/12/11 02:48:26;;;;;;;16.70;14.00;;;3.20;89.10;;;;;;5033067;28;20457;-72
2020/12/11 02:50:52;;;;;;;20.20;14.90;;;3.20;89.80;;;;;;5033247;28;20445;-72
2020/12/11 02:53:19;;;;;;;17.43;14.13;;;3.20;89.00;;;;;;5033920;28;20831;-72
2020/12/11 02:55:46;;;;;;;19.17;14.20;;;3.20;88.90;;;;;;5033031;28;20459;-72
2020/12/11 02:58:12;;;;;;;15.93;12.53;;;3.20;89.00;;;;;;5034940;28;20997;-72
2020/12/11 03:00:38;;;;;;;18.57;13.87;;;3.20;89.00;;;;;;5036882;28;20446;-72
2020/12/11 03:03:04;;;;;;;19.27;14.67;;;3.20;89.00;;;;;;5036820;28;20525;-72
2020/12/11 03:05:31;;;;;;;17.40;13.83;;;3.20;89.00;;;;;;5036437;28;20446;-72
2020/12/11 03:07:57;;;;;;;17.47;13.50;;;3.30;89.00;;;;;;5036695;28;20469;-72
2020/12/11 03:10:23;;;;;;;17.60;13.67;;;3.30;89.00;;;;;;5036370;28;20441;-72
2020/12/11 03:12:50;;;;;;;17.30;13.90;;;3.30;88.90;;;;;;5036877;28;20441;-72
2020/12/11 03:15:17;;;;;;;15.93;12.93;;;3.30;88.80;;;;;;5036579;28;20456;-72
2020/12/11 03:17:43;;;;;;;17.27;14.40;;;3.30;88.70;;;;;;5036372;28;20523;-72
2020/12/11 03:20:10;;;;;;;20.00;13.77;;;3.30;88.50;;;;;;5036211;28;20455;-72
2020/12/11 03:22:36;;;;;;;17.67;13.10;;;3.30;88.60;;;;;;5036424;28;20468;-72
2020/12/11 03:25:02;;;;;;;20.43;14.90;;;3.20;88.60;;;;;;5036399;28;20445;-72
2020/12/11 03:27:29;;;;;;;19.43;15.07;;;3.20;88.90;;;;;;5035996;28;20979;-72
2020/12/11 03:29:56;;;;;;;19.77;14.20;;;3.20;89.20;;;;;;5036329;28;20446;-72
2020/12/11 03:32:22;;;;;;;17.30;13.60;;;3.20;89.30;;;;;;5036396;28;20777;-72
2020/12/11 03:34:48;;;;;;;20.50;14.27;;;3.20;89.00;;;;;;5036347;28;20449;-73
2020/12/11 03:37:15;;;;;;;20.27;15.00;;;3.30;89.00;;;;;;5036006;28;21011;-72
2020/12/11 03:39:42;;;;;;;18.07;14.17;;;3.20;88.80;;;;;;5035914;28;20445;-72
2020/12/11 03:42:08;;;;;;;18.33;14.40;;;3.20;88.70;;;;;;5036112;28;20446;-72
2020/12/11 03:44:35;;;;;;;17.30;13.70;;;3.20;88.90;;;;;;5036046;28;20458;-72
2020/12/11 03:47:02;;;;;;;17.70;14.00;;;3.20;89.00;;;;;;5035965;28;20490;-72
2020/12/11 03:49:28;;;;;;;18.67;14.77;;;3.20;88.90;;;;;;5035936;28;20449;-72
2020/12/11 03:51:54;;;;;;;18.23;13.47;;;3.20;89.00;;;;;;5035862;28;20452;-72
2020/12/11 03:54:20;;;;;;;20.10;14.83;;;3.20;89.10;;;;;;5035736;28;20479;-72
2020/12/11 03:56:48;;;;;;;17.77;13.50;;;3.20;89.10;;;;;;5035762;28;20440;-72
2020/12/11 03:59:14;;;;;;;18.40;14.80;;;3.10;89.10;;;;;;5035526;28;20579;-72
2020/12/11 04:01:41;;;;;;;16.90;13.57;;;3.20;89.00;;;;;;5035691;28;20449;-72
2020/12/11 04:04:09;;;;;;;17.73;13.73;;;3.10;89.00;;;;;;5035620;28;20455;-72
2020/12/11 04:06:35;;;;;;;17.83;13.67;;;3.10;89.30;;;;;;5035648;28;20450;-72
2020/12/11 04:09:01;;;;;;;18.40;13.70;;;3.10;89.50;;;;;;5035153;28;20457;-72
2020/12/11 04:11:27;;;;;;;17.97;13.93;;;3.10;89.40;;;;;;5035519;28;20445;-72
2020/12/11 04:13:53;;;;;;;22.23;14.70;;;3.10;89.40;;;;;;5035475;28;20451;-72
2020/12/11 04:16:19;;;;;;;19.00;14.27;;;3.10;89.30;;;;;;5035584;28;20809;-72
2020/12/11 04:18:46;;;;;;;17.90;13.73;;;3.00;90.00;;;;;;5035364;28;20484;-72
2020/12/11 04:21:14;;;;;;;18.67;14.67;;;3.00;89.60;;;;;;5035406;28;20440;-72
2020/12/11 04:23:40;;;;;;;20.13;14.57;;;3.00;89.70;;;;;;5035376;28;20452;-72
2020/12/11 04:26:06;;;;;;;20.13;15.10;;;3.00;89.70;;;;;;5035346;28;20441;-72
2020/12/11 04:28:33;;;;;;;19.23;15.10;;;3.10;89.60;;;;;;5035121;28;20495;-72
2020/12/11 04:30:59;;;;;;;20.20;15.33;;;3.00;89.60;;;;;;5035211;28;20447;-72
2020/12/11 04:33:25;;;;;;;18.83;14.63;;;3.00;89.70;;;;;;5035717;28;20475;-72
2020/12/11 04:35:52;;;;;;;18.20;14.57;;;3.00;89.80;;;;;;5034740;28;20818;-72
2020/12/11 04:38:19;;;;;;;18.43;13.97;;;3.10;89.90;;;;;;5034598;28;20886;-72
2020/12/11 04:40:45;;;;;;;19.23;14.83;;;3.10;89.80;;;;;;5035003;28;20839;-72
2020/12/11 04:43:12;;;;;;;18.60;14.57;;;3.10;89.90;;;;;;5034912;28;20490;-72
2020/12/11 04:45:40;;;;;;;19.03;14.40;;;3.20;89.60;;;;;;5034530;28;20793;-72
2020/12/11 04:48:08;;;;;;;16.70;13.50;;;3.20;89.50;;;;;;5034802;28;20872;-72
2020/12/11 04:50:35;;;;;;;17.33;13.67;;;3.20;89.50;;;;;;5034963;28;20444;-72
2020/12/11 04:53:03;;;;;;;18.20;14.10;;;3.20;89.50;;;;;;5034739;28;20449;-72
2020/12/11 04:55:34;;;;;;;18.30;13.87;;;3.20;89.30;;;;;;5034696;28;20442;-72
2020/12/11 04:58:04;;;;;;;17.83;13.73;;;3.30;89.40;;;;;;5034532;28;20578;-72
2020/12/11 05:00:31;;;;;;;17.10;14.00;;;3.30;89.40;;;;;;5034624;28;20418;-72
2020/12/11 05:02:58;;;;;;;17.37;12.93;;;3.30;89.10;;;;;;5034265;28;20930;-72
2020/12/11 05:05:24;;;;;;;18.53;14.53;;;3.30;89.20;;;;;;5034550;28;20452;-72
2020/12/11 05:07:50;;;;;;;17.70;13.70;;;3.30;89.20;;;;;;5034310;28;20465;-72
2020/12/11 05:10:16;;;;;;;18.13;14.30;;;3.30;89.10;;;;;;5034033;28;20441;-72
2020/12/11 05:12:43;;;;;;;20.93;14.40;;;3.40;89.00;;;;;;5034506;28;20444;-72
2020/12/11 05:15:11;;;;;;;16.07;12.90;;;3.40;88.80;;;;;;5034295;28;20446;-73
2020/12/11 05:17:39;;;;;;;19.37;15.30;;;3.40;88.70;;;;;;5034345;28;20488;-72
2020/12/11 05:20:06;;;;;;;17.10;12.20;;;3.50;88.70;;;;;;5033558;28;20449;-72
2020/12/11 05:22:34;;;;;;;17.20;14.13;;;3.50;88.50;;;;;;5034173;28;20443;-72
2020/12/11 05:25:00;;;;;;;17.10;13.80;;;3.50;88.40;;;;;;5033767;28;20446;-72
2020/12/11 05:27:28;;;;;;;16.70;13.60;;;3.50;88.30;;;;;;5033988;28;20465;-72
2020/12/11 05:29:57;;;;;;;17.50;13.30;;;3.50;88.30;;;;;;5034014;28;20446;-72
2020/12/11 05:32:37;;;;;;;17.90;14.30;;;3.50;88.30;;;;;;5033965;28;20439;-72
2020/12/11 05:35:04;;;;;;;15.97;12.73;;;3.50;88.30;;;;;;5033541;28;20965;-72
2020/12/11 05:37:30;;;;;;;14.23;11.50;;;3.50;89.00;;;;;;5033661;28;20488;-72
2020/12/11 05:39:56;;;;;;;17.10;12.80;;;3.50;88.20;;;;;;5033935;28;20442;-72
2020/12/11 05:42:22;;;;;;;20.17;13.40;;;3.50;88.30;;;;;;5033747;28;20529;-72
2020/12/11 05:44:49;;;;;;;19.90;14.47;;;3.40;88.20;;;;;;5033789;28;20441;-72
2020/12/11 05:47:24;;;;;;;16.60;13.57;;;3.40;88.30;;;;;;5033699;28;20464;-72
2020/12/11 05:49:51;;;;;;;16.10;13.40;;;3.40;88.20;;;;;;5033707;28;20437;-72
2020/12/11 05:52:19;;;;;;;16.93;13.37;;;3.40;88.30;;;;;;5033413;28;20856;-72
2020/12/11 05:54:46;;;;;;;17.77;13.90;;;3.40;88.60;;;;;;5033687;28;20430;-72
2020/12/11 05:57:14;;;;;;;18.70;14.07;;;3.40;88.70;;;;;;5033472;28;20441;-72
2020/12/11 05:59:41;;;;;;;20.07;15.33;;;3.30;88.80;;;;;;5033484;28;20935;-72
2020/12/11 06:02:08;;;;;;;18.73;14.17;;;3.40;88.90;;;;;;5033381;28;21044;-72
2020/12/11 06:04:36;;;;;;;16.63;12.90;;;3.40;88.90;;;;;;5033699;28;20461;-72
2020/12/11 06:07:02;;;;;;;17.93;14.20;;;3.40;88.90;;;;;;5033281;28;20461;-72
2020/12/11 06:09:34;;;;;;;16.40;13.60;;;3.40;89.00;;;;;;5034314;28;20827;-72
2020/12/11 06:12:01;;;;;;;19.20;13.80;;;3.30;88.80;;;;;;5033670;28;20507;-72
2020/12/11 06:15:00;;;;;;;18.53;14.33;;;3.30;89.00;;;;;;5033576;28;20445;-72
2020/12/11 06:17:31;;;;;;;20.30;14.13;;;3.40;89.20;;;;;;5029900;28;20483;-72
2020/12/11 06:20:01;;;;;;;17.67;14.93;;;3.30;88.80;;;;;;5033039;28;20904;-72
2020/12/11 06:22:27;;;;;;;19.50;14.30;;;3.20;89.00;;;;;;5033375;28;20433;-72
2020/12/11 06:24:53;;;;;;;20.03;14.23;;;3.20;89.20;;;;;;5033399;28;20453;-72
2020/12/11 06:27:30;;;;;;;19.80;14.70;;;3.20;89.30;;;;;;5033288;28;20462;-72
2020/12/11 06:29:56;;;;;;;18.73;14.03;;;3.10;89.50;;;;;;5033465;28;20797;-72
2020/12/11 06:32:32;;;;;;;17.80;14.00;;;3.10;89.60;;;;;;5035634;28;20443;-72
2020/12/11 06:35:11;;;;;;;16.70;13.87;;;3.00;89.70;;;;;;5037104;28;20432;-72
2020/12/11 06:37:38;;;;;;;20.70;14.20;;;3.00;90.10;;;;;;5035739;28;20889;-72
2020/12/11 06:40:04;;;;;;;19.40;13.80;;;3.00;90.00;;;;;;5035891;28;20457;-72
2020/12/11 06:42:46;;;;;;;16.17;12.70;;;3.10;90.10;;;;;;5035755;28;20448;-72
2020/12/11 06:45:21;;;;;;;17.93;13.93;;;3.20;90.10;;;;;;5035852;28;20433;-72
2020/12/11 06:47:48;;;;;;;15.80;12.73;;;3.10;89.80;;;;;;5035480;28;20988;-72
2020/12/11 06:50:17;;;;;;;15.67;13.37;;;3.10;89.80;;;;;;5035731;28;20448;-72
2020/12/11 06:52:43;;;;;;;15.40;12.67;;;3.10;89.80;;;;;;5035710;28;20445;-72
2020/12/11 06:55:10;;;;;;;17.50;13.93;;;3.10;89.90;;;;;;5035619;28;20445;-73
2020/12/11 06:57:44;;;;;;;17.53;13.93;;;3.10;90.00;;;;;;5035496;28;20492;-73
2020/12/11 07:00:31;;;;;;;17.37;12.53;;;3.10;90.00;;;;;;5035629;28;20430;-73
2020/12/11 07:03:20;;;;;;;18.03;13.77;;;3.10;89.90;;;;;;5035619;28;20523;-72
2020/12/11 07:05:59;;;;;;;17.97;14.43;;;3.10;89.90;;;;;;5035463;28;20424;-72
2020/12/11 07:08:25;;;;;;;17.60;13.17;;;3.20;90.00;;;;;;5035386;28;20562;-72
2020/12/11 07:10:51;;;;;;;16.60;13.97;;;3.20;90.00;;;;;;5035051;28;20853;-72
2020/12/11 07:13:17;;;;;;;18.00;14.07;;;3.20;89.90;;;;;;5035059;28;20568;-72
2020/12/11 07:15:44;;;;;;;15.30;11.60;;;3.30;89.60;;;;;;5034944;28;20824;-72
2020/12/11 07:18:15;;;;;;;16.97;13.10;;;3.30;89.60;;;;;;5035050;28;20499;-72
2020/12/11 07:20:48;;;;;;;16.10;12.90;;;3.30;89.80;;;;;;5035336;28;20448;-72
2020/12/11 07:23:16;;;;;;;17.80;13.80;;;3.30;89.60;;;;;;5035274;28;20838;-72
2020/12/11 07:25:43;;;;;;;18.40;13.63;;;3.40;89.30;;;;;;5035240;28;20450;-72
2020/12/11 07:28:09;;;;;;;18.77;13.97;;;3.40;88.90;;;;;;5035204;28;20465;-72
2020/12/11 07:30:35;;;;;;;15.70;12.37;;;3.40;89.00;;;;;;5034899;28;20899;-72
2020/12/11 07:33:03;;;;;;;19.47;14.90;;;3.40;89.10;;;;;;5035124;28;20472;-72
2020/12/11 07:35:29;;;;;;;16.93;13.70;;;3.40;88.90;;;;;;5016254;28;544124;-72
2020/12/11 07:37:57;;;;;;;17.17;14.03;;;3.40;88.90;;;;;;5035973;28;20564;-72
2020/12/11 07:40:24;;;;;;;16.23;12.87;;;3.50;88.90;;;;;;5036213;28;20425;-72
2020/12/11 07:42:52;;;;;;;14.93;12.13;;;3.50;88.80;;;;;;5035447;28;20492;-72
2020/12/11 07:45:25;;;;;;;17.30;13.10;;;3.50;88.90;;;;;;5036059;28;20434;-72
2020/12/11 07:47:52;;;;;;;17.23;14.10;;;3.50;88.70;;;;;;5035909;28;20483;-72
2020/12/11 07:50:24;;;;;;;16.43;13.33;;;3.60;88.80;;;;;;5035706;28;20434;-72
2020/12/11 07:52:54;;;;;;;18.67;14.07;;;3.60;88.60;;;;;;5036161;28;20517;-72
2020/12/11 07:55:22;;;;;;;17.77;12.83;;;3.60;88.40;;;;;;5036029;28;20445;-72
2020/12/11 07:57:55;;;;;;;20.47;13.70;;;3.70;88.50;;;;;;5035784;28;20843;-72
2020/12/11 08:00:22;;;;;;;17.73;13.50;;;3.70;88.20;;;;;;5035687;28;20453;-72
2020/12/11 08:02:52;;;;;;;17.03;13.83;;;3.80;88.20;;;;;;5035734;28;20422;-72
2020/12/11 08:05:19;;;;;;;16.63;13.20;;;3.80;88.20;;;;;;5035709;28;20449;-72
2020/12/11 08:07:52;;;;;;;15.83;13.50;;;3.90;88.00;;;;;;5035262;28;21013;-72
2020/12/11 08:10:21;;;;;;;15.57;12.83;;;3.90;87.90;;;;;;5035578;28;20422;-72
2020/12/11 08:12:47;;;;;;;17.00;14.23;;;4.00;88.10;;;;;;5035246;28;20893;-72
2020/12/11 08:15:29;;;;;;;16.87;13.80;;;4.00;87.90;;;;;;5035464;28;20447;-72
2020/12/11 08:18:09;;;;;;;19.03;13.90;;;4.00;87.80;;;;;;5034954;28;20980;-72
2020/12/11 08:20:50;;;;;;;17.03;13.13;;;4.10;87.90;;;;;;5035484;28;20440;-72
2020/12/11 08:23:21;;;;;;;16.87;13.80;;;4.10;87.90;;;;;;5035161;28;20960;-72
2020/12/11 08:26:07;;;;;;;14.37;12.33;;;4.20;87.70;;;;;;5035305;28;20469;-72
2020/12/11 08:28:33;;;;;;;19.10;13.67;;;4.20;87.50;;;;;;5035443;28;20466;-72
2020/12/11 08:31:12;;;;;;;15.60;13.20;;;4.20;87.50;;;;;;5035721;28;20445;-73
2020/12/11 08:33:39;;;;;;;15.70;12.60;;;4.30;87.30;;;;;;5035408;28;20430;-72
2020/12/11 08:36:05;;;;;;;17.90;13.37;;;4.40;87.30;;;;;;5035364;28;20810;-72
2020/12/11 08:38:31;;;;;;;14.77;12.53;;;4.40;87.10;;;;;;5035177;28;20494;-72
2020/12/11 08:40:58;;;;;;;14.37;12.20;;;4.40;86.90;;;;;;5035473;28;20790;-72
2020/12/11 08:43:30;;;;;;;16.70;12.93;;;4.50;87.00;;;;;;5035656;28;20446;-72
2020/12/11 08:46:09;;;;;;;15.33;12.80;;;4.50;86.80;;;;;;5035097;28;20840;-72
2020/12/11 08:48:57;;;;;;;17.50;14.23;;;4.60;86.70;;;;;;5035611;28;20539;-72
2020/12/11 08:51:24;;;;;;;16.83;13.10;;;4.60;86.40;;;;;;5035054;28;20433;-72
2020/12/11 08:53:53;;;;;;;19.70;14.13;;;4.60;86.30;;;;;;5035563;28;20442;-72
2020/12/11 08:56:20;;;;;;;17.00;14.70;;;4.60;85.90;;;;;;5033934;28;20493;-74
2020/12/11 08:58:46;;;;;;;16.80;13.60;;;4.60;86.00;;;;;;5034403;28;20830;-73
2020/12/11 09:01:13;;;;;;;18.70;13.40;;;4.60;86.10;;;;;;5034864;28;20447;-73
2020/12/11 09:03:39;;;;;;;17.23;13.33;;;4.70;86.40;;;;;;5035055;28;20438;-73
2020/12/11 09:06:05;;;;;;;16.60;12.23;;;4.70;86.40;;;;;;5034626;28;20441;-73
2020/12/11 09:08:31;;;;;;;19.90;13.90;;;4.70;86.50;;;;;;5034674;28;20462;-73
2020/12/11 09:10:57;;;;;;;13.53;12.00;;;4.70;86.40;;;;;;5034908;28;20454;-73
2020/12/11 09:13:24;;;;;;;18.13;14.10;;;4.80;87.20;;;;;;5035354;28;20404;-73
2020/12/11 09:15:50;;;;;;;16.20;13.53;;;4.80;86.40;;;;;;5045923;28;20848;-73
2020/12/11 09:18:17;;;;;;;16.73;12.80;;;4.80;86.20;;;;;;5034526;28;20505;-73
2020/12/11 09:20:44;;;;;;;16.43;13.37;;;4.90;86.20;;;;;;5034420;28;20473;-73
2020/12/11 09:23:11;;;;;;;16.10;13.77;;;4.90;86.10;;;;;;5034603;28;20508;-73
2020/12/11 09:25:37;;;;;;;15.60;13.00;;;4.90;86.10;;;;;;5034652;28;20791;-73
2020/12/11 09:28:10;;;;;;;15.50;12.20;;;5.00;86.20;;;;;;5034465;28;20462;-73
2020/12/11 09:30:38;;;;;;;16.73;12.73;;;5.00;86.10;;;;;;5034517;28;20427;-72
2020/12/11 09:33:07;;;;;;;14.60;13.03;;;5.00;85.90;;;;;;5034737;28;20446;-72
2020/12/11 09:35:34;;;;;;;18.63;12.63;;;5.00;85.90;;;;;;5034076;28;20486;-72
2020/12/11 09:38:00;;;;;;;15.93;12.00;;;5.10;85.80;;;;;;5034821;28;20491;-72
2020/12/11 09:40:34;;;;;;;16.30;12.37;;;5.10;85.50;;;;;;5034142;28;20439;-72
2020/12/11 09:43:31;;;;;;;13.43;10.97;;;5.20;85.20;;;;;;5034225;28;20439;-72
2020/12/11 09:46:03;;;;;;;14.67;12.17;;;5.20;85.20;;;;;;5034079;28;20467;-72
2020/12/11 09:48:36;;;;;;;16.63;12.60;;;5.30;84.90;;;;;;5034153;28;20462;-72
2020/12/11 09:51:11;;;;;;;14.80;12.27;;;5.30;85.40;;;;;;5034000;28;20442;-72
2020/12/11 09:54:00;;;;;;;12.47;11.10;;;5.40;84.60;;;;;;5034102;28;20544;-72
2020/12/11 09:56:27;;;;;;;15.33;11.83;;;5.40;84.40;;;;;;5034214;28;20457;-72
2020/12/11 09:58:55;;;;;;;13.27;11.87;;;5.50;84.40;;;;;;5034676;28;20581;-72
2020/12/11 10:01:25;;;;;;;14.70;11.43;;;5.60;84.30;;;;;;5033722;28;20952;-72
2020/12/11 10:03:54;;;;;;;13.17;11.37;;;5.60;84.10;;;;;;5033703;28;20427;-72
2020/12/11 10:06:26;;;;;;;13.53;11.80;;;5.70;83.90;;;;;;5033614;28;20517;-72
2020/12/11 10:08:53;;;;;;;14.20;11.50;;;5.80;83.40;;;;;;5033943;28;20454;-72
2020/12/11 10:11:21;;;;;;;16.00;12.70;;;5.90;83.20;;;;;;5033707;28;20443;-72
2020/12/11 10:13:49;;;;;;;15.37;11.93;;;6.00;83.00;;;;;;5033701;28;20847;-72
2020/12/11 10:16:18;;;;;;;13.10;11.23;;;6.10;82.10;;;;;;5033672;28;20516;-73
2020/12/11 10:18:45;;;;;;;13.43;11.10;;;6.20;82.10;;;;;;5033541;28;20478;-73
2020/12/11 10:21:11;;;;;;;13.00;11.20;;;6.30;81.70;;;;;;5033771;28;20442;-73
2020/12/11 10:23:38;;;;;;;13.47;10.73;;;6.40;81.60;;;;;;5033598;28;20450;-73
2020/12/11 10:26:04;;;;;;;14.30;10.33;;;6.50;82.20;;;;;;5033529;28;20446;-73
2020/12/11 10:28:31;;;;;;;11.53;10.33;;;6.50;81.30;;;;;;5033381;28;20459;-73
2020/12/11 10:30:57;;;;;;;16.90;11.97;;;6.50;80.90;;;;;;5033671;28;20450;-73
2020/12/11 10:33:23;;;;;;;12.17;9.37;;;6.50;80.80;;;;;;5033545;28;20434;-73
2020/12/11 10:35:51;;;;;;;12.00;10.20;;;6.50;80.90;;;;;;5033193;28;20451;-72
2020/12/11 10:38:19;;;;;;;12.73;11.03;;;6.50;81.10;;;;;;5033121;28;20486;-72
2020/12/11 10:40:45;;;;;;;12.67;10.60;;;6.50;81.10;;;;;;5035236;28;20450;-72
2020/12/11 10:43:11;;;;;;;11.37;10.13;;;6.50;81.20;;;;;;5043274;28;20485;-72
2020/12/11 10:45:37;;;;;;;12.10;10.73;;;6.50;81.50;;;;;;5033346;28;20443;-72
2020/12/11 10:48:04;;;;;;;12.17;9.50;;;6.50;81.60;;;;;;5033323;28;20473;-73
2020/12/11 10:50:30;;;;;;;13.10;10.90;;;6.50;81.70;;;;;;5033289;28;20800;-73
2020/12/11 10:52:57;;;;;;;11.60;10.30;;;6.50;81.80;;;;;;5033263;28;20427;-73
2020/12/11 10:55:25;;;;;;;12.40;9.73;;;6.50;81.80;;;;;;5033490;28;20442;-73
2020/12/11 10:57:52;;;;;;;15.50;10.43;;;6.40;81.90;;;;;;5033318;28;20512;-73
2020/12/11 11:00:18;;;;;;;12.07;10.10;;;6.40;82.10;;;;;;5033432;28;20447;-73
2020/12/11 11:02:44;;;;;;;11.63;9.63;;;6.40;82.30;;;;;;5033365;28;20450;-73
2020/12/11 11:05:10;;;;;;;11.70;9.67;;;6.40;82.50;;;;;;5033162;28;20538;-73
2020/12/11 11:07:37;;;;;;;11.70;9.93;;;6.40;82.60;;;;;;5032845;28;20451;-73
2020/12/11 11:10:15;;;;;;;11.80;9.10;;;6.40;82.70;;;;;;5033357;28;20933;-73
2020/12/11 11:12:44;;;;;;;11.73;9.23;;;6.40;82.50;;;;;;5033435;28;20434;-73
2020/12/11 11:18:13;;;;;;;9.93;8.60;;;6.30;82.50;;;;;;5031035;28;20468;-72
2020/12/11 11:20:54;;;;;;;10.17;9.17;;;6.20;82.60;;;;;;5036622;28;20461;-72
2020/12/11 11:23:37;;;;;;;13.57;10.50;;;6.20;82.80;;;;;;5036823;28;20453;-72
2020/12/11 11:28:48;;;;;;;11.20;9.60;;;6.30;82.70;;;;;;5036012;28;20979;-72
2020/12/11 11:31:15;;;;;;;13.90;10.20;;;6.30;82.70;;;;;;5037057;28;20427;-72
2020/12/11 11:33:43;;;;;;;10.50;8.93;;;6.40;82.30;;;;;;5037692;28;20754;-72
2020/12/11 11:36:10;;;;;;;9.43;8.40;;;6.50;82.00;;;;;;5036370;28;20458;-72
2020/12/11 11:38:36;;;;;;;12.80;9.13;;;6.60;81.90;;;;;;5036640;28;20509;-72
2020/12/11 11:41:02;;;;;;;9.90;8.70;;;6.60;81.10;;;;;;5036517;28;20458;-72
2020/12/11 11:43:44;;;;;;;9.43;8.43;;;6.80;80.70;;;;;;5036482;28;20454;-72
2020/12/11 11:46:10;;;;;;;8.80;7.87;;;7.20;81.30;;;;;;5036327;28;20521;-72
2020/12/11 11:48:40;;;;;;;9.33;7.70;;;7.80;80.20;;;;;;5035781;28;20459;-72
2020/12/11 11:51:10;;;;;;;8.90;8.00;;;8.40;77.00;;;;;;5036312;28;20436;-73
2020/12/11 11:53:36;;;;;;;8.50;7.17;;;8.80;73.90;;;;;;5036168;28;20436;-73
2020/12/11 11:56:02;;;;;;;9.27;8.37;;;9.00;71.50;;;;;;5036308;28;20442;-72
2020/12/11 11:58:29;;;;;;;9.73;8.10;;;9.00;71.50;;;;;;5035965;28;20482;-72
2020/12/11 12:00:55;;;;;;;10.13;7.97;;;9.00;70.70;;;;;;5036082;28;20450;-73
2020/12/11 12:03:24;;;;;;;8.27;7.43;;;9.00;71.00;;;;;;5035943;28;20522;-72
2020/12/11 12:05:50;;;;;;;10.53;7.80;;;9.20;70.90;;;;;;5036048;28;20484;-73
2020/12/11 12:08:20;;;;;;;9.43;8.50;;;9.20;70.60;;;;;;5035815;28;20459;-73
2020/12/11 12:10:46;;;;;;;9.40;7.53;;;9.20;70.30;;;;;;5036029;28;20536;-73
2020/12/11 12:13:13;;;;;;;8.30;7.20;;;9.20;70.40;;;;;;5036146;28;20439;-73
2020/12/11 12:15:41;;;;;;;7.80;7.00;;;9.20;69.80;;;;;;5036379;28;20489;-73
2020/12/11 12:18:10;;;;;;;8.03;7.33;;;9.10;70.30;;;;;;5036137;28;20466;-73
2020/12/11 12:20:45;;;;;;;7.80;6.60;;;9.00;69.80;;;;;;5036187;28;20450;-72
2020/12/11 12:28:55;;;;;;;7.77;6.80;;;9.30;70.10;;;;;;5030627;28;20462;-72
2020/12/11 12:31:30;;;;;;;7.63;6.93;;;9.30;70.80;;;;;;5035577;28;20454;-72
2020/12/11 12:34:23;;;;;;;8.00;7.20;;;9.30;70.20;;;;;;5035170;28;20422;-72
2020/12/11 12:42:49;;;;;;;8.93;7.67;;;9.40;70.80;;;;;;5035193;28;20506;-72
2020/12/11 12:45:15;;;;;;;8.30;7.23;;;9.30;70.70;;;;;;5035129;28;20423;-72
2020/12/11 12:47:42;;;;;;;8.30;7.37;;;9.40;70.90;;;;;;5035258;28;20832;-73
2020/12/11 12:50:10;;;;;;;9.93;8.67;;;9.30;70.70;;;;;;5034521;28;21073;-73
2020/12/11 12:52:37;;;;;;;8.57;7.73;;;9.20;70.80;;;;;;5034844;28;20505;-73
2020/12/11 12:55:03;;;;;;;8.87;7.17;;;9.20;71.30;;;;;;5034891;28;20461;-73
2020/12/11 12:57:33;;;;;;;9.00;7.90;;;9.00;71.80;;;;;;5034729;28;20477;-73
2020/12/11 13:00:08;;;;;;;10.57;8.40;;;9.00;72.60;;;;;;5034709;28;20916;-73
2020/12/11 13:03:00;;;;;;;8.50;7.70;;;8.80;73.10;;;;;;5034459;28;20441;-73